Time;durP1;ratioP1;P1;durP2;ratioP2;P2;SDS_P1;SDS_P2;PMS_P1;PMS_P2;Temp;Humidity;BMP_temperature;BMP_pressure;BME280_temperature;BME280_humidity;BME280_pressure;Samples;Min_cycle;Max_cycle;Signal;HPM_P1;HPM_P2
2021/09/07 00:05:05;;;;;;;15.00;10.50;;;16.90;99.90;;;;;;5053335;28;20422;-80
2021/09/07 00:07:32;;;;;;;12.87;9.97;;;16.90;99.90;;;;;;5052932;28;20959;-80
2021/09/07 00:09:58;;;;;;;12.90;10.87;;;16.80;99.90;;;;;;5054717;28;20455;-81
2021/09/07 00:12:25;;;;;;;12.43;9.90;;;16.70;99.90;;;;;;5053620;28;20557;-80
2021/09/07 00:14:52;;;;;;;12.50;10.17;;;16.60;99.90;;;;;;5053636;28;20823;-80
2021/09/07 00:17:19;;;;;;;16.57;11.50;;;16.70;99.90;;;;;;5057621;28;20468;-80
2021/09/07 00:19:46;;;;;;;13.73;10.67;;;16.70;99.90;;;;;;5056613;28;20781;-80
2021/09/07 00:22:14;;;;;;;15.87;9.80;;;16.80;99.90;;;;;;5056017;28;20448;-80
2021/09/07 00:24:41;;;;;;;11.03;9.80;;;16.80;99.90;;;;;;5056197;28;20459;-80
2021/09/07 00:27:08;;;;;;;12.03;9.93;;;16.80;99.90;;;;;;5056438;28;20428;-80
2021/09/07 00:29:35;;;;;;;13.73;9.57;;;16.80;99.90;;;;;;5055997;28;20506;-80
2021/09/07 00:32:02;;;;;;;14.30;10.90;;;16.70;99.90;;;;;;5055996;28;20489;-80
2021/09/07 00:34:29;;;;;;;12.20;9.90;;;16.80;99.90;;;;;;5056447;28;20815;-80
2021/09/07 00:36:55;;;;;;;13.17;10.20;;;16.80;99.90;;;;;;5056151;28;20786;-80
2021/09/07 00:39:24;;;;;;;15.10;9.97;;;16.80;99.90;;;;;;5057603;28;20457;-80
2021/09/07 00:41:50;;;;;;;16.60;10.30;;;16.70;99.90;;;;;;5060982;28;20784;-81
2021/09/07 00:44:19;;;;;;;14.07;10.23;;;16.70;99.90;;;;;;5057462;28;20454;-80
2021/09/07 00:46:49;;;;;;;14.40;10.73;;;16.70;99.90;;;;;;5057489;28;20475;-80
2021/09/07 00:49:16;;;;;;;12.93;10.40;;;16.70;99.90;;;;;;5059047;28;20442;-79
2021/09/07 00:51:44;;;;;;;13.90;10.30;;;16.60;99.90;;;;;;5058908;28;20491;-79
2021/09/07 00:54:12;;;;;;;15.53;10.97;;;16.50;99.90;;;;;;5061500;28;20530;-79
2021/09/07 00:56:42;;;;;;;15.00;11.20;;;16.50;99.90;;;;;;5062820;28;20446;-79
2021/09/07 00:59:11;;;;;;;13.73;10.37;;;16.50;99.90;;;;;;5056655;28;20435;-80
2021/09/07 01:01:37;;;;;;;13.67;10.10;;;16.50;99.90;;;;;;5056165;28;20457;-80
2021/09/07 01:04:05;;;;;;;13.53;10.10;;;16.40;99.90;;;;;;5055837;28;20435;-80
2021/09/07 01:06:32;;;;;;;13.70;10.77;;;16.40;99.90;;;;;;5055521;28;20560;-81
2021/09/07 01:08:59;;;;;;;14.90;9.77;;;16.40;99.90;;;;;;5055817;28;20449;-80
2021/09/07 01:11:26;;;;;;;14.37;10.37;;;16.30;99.90;;;;;;5055448;28;20491;-80
2021/09/07 01:13:54;;;;;;;16.10;10.90;;;16.20;99.90;;;;;;5056280;28;20465;-80
2021/09/07 01:16:21;;;;;;;14.33;10.30;;;16.20;99.90;;;;;;5055945;28;20479;-80
2021/09/07 01:18:48;;;;;;;15.50;10.90;;;16.20;99.90;;;;;;5056005;28;20425;-80
2021/09/07 01:21:16;;;;;;;13.53;10.67;;;16.20;99.90;;;;;;5056046;28;20454;-82
2021/09/07 01:23:45;;;;;;;12.20;10.23;;;16.20;99.90;;;;;;5055856;28;20541;-79
2021/09/07 01:26:17;;;;;;;12.67;10.40;;;16.20;99.90;;;;;;5056591;28;20767;-81
2021/09/07 01:28:45;;;;;;;15.03;9.90;;;16.20;99.90;;;;;;5055610;28;20495;-81
2021/09/07 01:31:13;;;;;;;13.07;9.87;;;16.30;99.90;;;;;;5055816;28;20512;-81
2021/09/07 01:33:41;;;;;;;13.43;10.80;;;16.30;99.90;;;;;;5055698;28;20432;-81
2021/09/07 01:36:08;;;;;;;12.40;10.00;;;16.20;99.90;;;;;;5055676;28;21021;-81
2021/09/07 01:38:35;;;;;;;13.77;9.83;;;16.20;99.90;;;;;;5055523;28;20456;-81
2021/09/07 01:41:03;;;;;;;14.40;10.57;;;16.20;99.90;;;;;;5058972;28;20509;-80
2021/09/07 01:43:31;;;;;;;18.10;11.43;;;16.20;99.90;;;;;;5055219;28;20480;-81
2021/09/07 01:45:58;;;;;;;15.10;10.13;;;16.10;99.90;;;;;;5055758;28;20466;-81
2021/09/07 01:48:26;;;;;;;14.80;12.20;;;16.10;99.90;;;;;;5055386;28;20431;-80
2021/09/07 01:50:53;;;;;;;15.43;10.43;;;16.10;99.90;;;;;;5055522;28;20471;-80
2021/09/07 01:53:20;;;;;;;11.83;9.80;;;16.10;99.90;;;;;;5054970;28;20549;-80
2021/09/07 01:55:47;;;;;;;12.30;9.93;;;16.10;99.90;;;;;;5055499;28;20477;-80
2021/09/07 01:58:14;;;;;;;12.53;10.10;;;16.10;99.90;;;;;;5056593;28;20454;-80
2021/09/07 02:00:43;;;;;;;14.07;10.30;;;16.00;99.90;;;;;;5054198;28;20451;-80
2021/09/07 02:03:09;;;;;;;14.27;10.80;;;16.00;99.90;;;;;;5054097;28;20420;-80
2021/09/07 02:05:36;;;;;;;12.80;10.03;;;16.00;99.90;;;;;;5053642;28;20965;-81
2021/09/07 02:08:03;;;;;;;16.50;12.13;;;16.00;99.90;;;;;;5054260;28;20458;-80
2021/09/07 02:10:30;;;;;;;11.60;10.00;;;16.00;99.90;;;;;;5054660;28;20424;-80
2021/09/07 02:12:57;;;;;;;17.83;11.50;;;15.90;99.90;;;;;;5054830;28;20483;-80
2021/09/07 02:15:24;;;;;;;13.90;10.40;;;15.80;99.90;;;;;;5054583;28;20468;-80
2021/09/07 02:17:52;;;;;;;14.87;10.87;;;15.80;99.90;;;;;;5055549;28;20473;-80
2021/09/07 02:20:19;;;;;;;13.33;10.80;;;15.90;99.90;;;;;;5054471;28;20935;-81
2021/09/07 02:22:46;;;;;;;12.53;10.07;;;15.90;99.90;;;;;;5055788;28;20478;-81
2021/09/07 02:25:13;;;;;;;15.07;10.00;;;16.00;99.90;;;;;;5054424;28;20464;-81
2021/09/07 02:27:39;;;;;;;14.50;10.57;;;15.90;99.90;;;;;;5055577;28;20429;-81
2021/09/07 02:30:08;;;;;;;13.67;11.03;;;15.90;99.90;;;;;;5055948;28;20449;-81
2021/09/07 02:32:35;;;;;;;14.67;11.50;;;15.90;99.90;;;;;;5055163;28;20523;-81
2021/09/07 02:35:03;;;;;;;15.47;11.60;;;15.80;99.90;;;;;;5055084;28;20823;-81
2021/09/07 02:37:30;;;;;;;16.20;11.03;;;15.70;99.90;;;;;;5054907;28;20442;-81
2021/09/07 02:39:57;;;;;;;12.57;10.30;;;15.70;99.90;;;;;;5058700;28;20545;-80
2021/09/07 02:42:23;;;;;;;12.70;10.07;;;15.70;99.90;;;;;;5055549;28;20506;-81
2021/09/07 02:44:50;;;;;;;10.60;8.83;;;15.70;99.90;;;;;;5054869;28;20503;-81
2021/09/07 02:47:17;;;;;;;16.53;10.80;;;15.70;99.90;;;;;;5054869;28;20973;-81
2021/09/07 02:49:44;;;;;;;13.97;11.37;;;15.60;99.90;;;;;;5054836;28;20458;-81
2021/09/07 02:52:12;;;;;;;14.40;11.13;;;15.60;99.90;;;;;;5054841;28;20489;-81
2021/09/07 02:54:39;;;;;;;11.70;10.00;;;15.50;99.90;;;;;;5054322;28;20917;-81
2021/09/07 02:57:06;;;;;;;14.50;9.60;;;15.50;99.90;;;;;;5054587;28;20529;-81
2021/09/07 02:59:33;;;;;;;11.20;9.20;;;15.50;99.90;;;;;;5056534;28;20985;-81
2021/09/07 03:02:00;;;;;;;14.70;11.30;;;15.50;99.90;;;;;;5054358;28;20455;-81
2021/09/07 03:04:26;;;;;;;14.40;10.57;;;15.50;99.90;;;;;;5054444;28;20426;-81
2021/09/07 03:06:53;;;;;;;14.47;10.57;;;15.40;99.90;;;;;;5054326;28;20651;-81
2021/09/07 03:09:21;;;;;;;11.50;9.90;;;15.50;99.90;;;;;;5054622;28;20448;-81
2021/09/07 03:11:48;;;;;;;12.10;9.77;;;15.40;99.90;;;;;;5053935;28;20571;-81
2021/09/07 03:14:15;;;;;;;12.80;10.20;;;15.40;99.90;;;;;;5054608;28;20472;-81
2021/09/07 03:16:42;;;;;;;13.47;10.50;;;15.40;99.90;;;;;;5053531;28;20961;-81
2021/09/07 03:19:09;;;;;;;11.27;8.83;;;15.40;99.90;;;;;;5054292;28;20463;-81
2021/09/07 03:21:37;;;;;;;12.80;10.77;;;15.40;99.90;;;;;;5055065;28;20531;-81
2021/09/07 03:24:04;;;;;;;12.37;10.40;;;15.30;99.90;;;;;;5053951;28;20435;-81
2021/09/07 03:26:32;;;;;;;14.03;10.07;;;15.30;99.90;;;;;;5054636;28;20439;-81
2021/09/07 03:28:59;;;;;;;14.07;10.97;;;15.30;99.90;;;;;;5053451;28;20940;-81
2021/09/07 03:31:26;;;;;;;12.13;9.30;;;15.20;99.90;;;;;;5058275;28;20477;-80
2021/09/07 03:33:53;;;;;;;16.07;10.57;;;15.30;99.90;;;;;;5069963;28;20463;-80
2021/09/07 03:36:20;;;;;;;12.80;10.13;;;15.30;99.90;;;;;;5097590;23;20845;-86
2021/09/07 03:38:47;;;;;;;13.17;10.60;;;15.30;99.90;;;;;;5099548;28;20428;-83
2021/09/07 03:41:14;;;;;;;12.93;10.50;;;15.30;99.90;;;;;;5098653;28;20426;-84
2021/09/07 03:43:42;;;;;;;14.17;10.57;;;15.20;99.90;;;;;;5097462;28;20417;-85
2021/09/07 03:46:09;;;;;;;12.70;10.23;;;15.10;99.90;;;;;;5096793;28;20529;-84
2021/09/07 03:48:36;;;;;;;13.07;10.40;;;15.10;99.90;;;;;;5097179;28;20429;-86
2021/09/07 03:51:02;;;;;;;12.40;9.80;;;15.20;99.90;;;;;;5098904;28;20482;-86
2021/09/07 03:53:30;;;;;;;17.30;11.20;;;15.20;99.90;;;;;;5101552;28;20461;-85
2021/09/07 03:55:57;;;;;;;13.00;10.97;;;15.30;99.90;;;;;;5101269;28;20614;-83
2021/09/07 03:58:24;;;;;;;14.80;9.67;;;15.20;99.90;;;;;;5103027;28;20491;-83
2021/09/07 04:00:52;;;;;;;16.37;11.67;;;15.20;99.90;;;;;;5103611;28;20426;-85
2021/09/07 04:03:20;;;;;;;13.20;10.87;;;15.10;99.90;;;;;;5101134;28;20429;-85
2021/09/07 04:05:48;;;;;;;15.60;11.73;;;15.10;99.90;;;;;;5100621;28;20451;-86
2021/09/07 04:08:15;;;;;;;14.33;10.80;;;15.00;99.90;;;;;;5100906;28;20447;-85
2021/09/07 04:10:42;;;;;;;12.30;10.27;;;14.90;99.90;;;;;;5106792;28;20421;-85
2021/09/07 04:13:09;;;;;;;14.50;10.47;;;14.90;99.90;;;;;;5108752;28;20537;-84
2021/09/07 04:15:36;;;;;;;14.07;10.10;;;14.90;99.90;;;;;;5110787;28;20476;-83
2021/09/07 04:18:04;;;;;;;13.23;10.10;;;14.90;99.90;;;;;;5111861;28;20898;-83
2021/09/07 04:20:31;;;;;;;12.97;9.80;;;15.00;99.90;;;;;;5114758;28;20418;-83
2021/09/07 04:22:58;;;;;;;14.00;10.77;;;14.90;99.90;;;;;;5112846;28;20521;-85
2021/09/07 04:25:25;;;;;;;14.23;11.40;;;15.00;99.90;;;;;;5108333;28;20522;-85
2021/09/07 04:27:53;;;;;;;14.77;11.10;;;15.20;99.90;;;;;;5102971;28;20466;-85
2021/09/07 04:30:20;;;;;;;12.57;10.77;;;15.30;99.90;;;;;;5100920;28;20520;-85
2021/09/07 04:32:47;;;;;;;12.97;10.53;;;15.20;99.90;;;;;;5100067;28;20573;-85
2021/09/07 04:35:15;;;;;;;17.10;11.30;;;15.30;99.90;;;;;;5100517;28;20469;-85
2021/09/07 04:37:43;;;;;;;15.30;10.77;;;15.20;99.90;;;;;;5099824;28;20480;-85
2021/09/07 04:40:10;;;;;;;13.77;10.90;;;15.20;99.90;;;;;;5101452;28;20430;-85
2021/09/07 04:42:37;;;;;;;20.53;10.93;;;15.10;99.90;;;;;;5100642;28;20446;-85
2021/09/07 04:45:04;;;;;;;15.77;10.83;;;15.00;99.90;;;;;;5100624;28;20429;-85
2021/09/07 04:47:31;;;;;;;18.63;11.07;;;15.00;99.90;;;;;;5100654;28;20840;-85
2021/09/07 04:49:58;;;;;;;13.20;10.80;;;15.00;99.90;;;;;;5100691;28;20459;-85
2021/09/07 04:52:26;;;;;;;13.00;10.63;;;15.10;99.90;;;;;;5114012;28;20490;-85
2021/09/07 04:54:53;;;;;;;14.20;11.80;;;15.10;99.90;;;;;;5121863;28;20486;-85
2021/09/07 04:57:19;;;;;;;14.27;10.90;;;14.90;99.90;;;;;;5117733;28;20467;-85
2021/09/07 04:59:46;;;;;;;14.57;10.90;;;14.90;99.90;;;;;;5108140;28;20411;-83
2021/09/07 05:02:13;;;;;;;15.50;12.13;;;14.90;99.90;;;;;;5120341;28;20422;-85
2021/09/07 05:04:40;;;;;;;18.80;11.00;;;14.90;99.90;;;;;;5107815;28;20525;-85
2021/09/07 05:07:07;;;;;;;14.53;11.40;;;14.90;99.90;;;;;;5109850;28;20466;-83
2021/09/07 05:09:35;;;;;;;14.90;11.37;;;14.80;99.90;;;;;;5103532;28;20459;-85
2021/09/07 05:12:02;;;;;;;13.60;10.90;;;14.90;99.90;;;;;;5100294;28;21061;-85
2021/09/07 05:14:29;;;;;;;13.30;11.47;;;15.00;99.90;;;;;;5100517;28;20541;-85
2021/09/07 05:16:56;;;;;;;13.70;11.40;;;15.00;99.90;;;;;;5109798;28;20528;-83
2021/09/07 05:19:23;;;;;;;13.63;10.97;;;15.00;99.90;;;;;;5111546;28;20523;-83
2021/09/07 05:21:50;;;;;;;13.10;11.67;;;15.10;99.90;;;;;;5111129;28;20929;-84
2021/09/07 05:24:17;;;;;;;15.47;10.97;;;15.20;99.90;;;;;;5111736;28;20543;-83
2021/09/07 05:26:45;;;;;;;14.27;10.63;;;15.20;99.90;;;;;;5101188;28;20476;-85
2021/09/07 05:29:12;;;;;;;18.70;11.43;;;15.20;99.90;;;;;;5101044;28;20476;-83
2021/09/07 05:31:38;;;;;;;16.03;11.27;;;15.20;99.90;;;;;;5110338;28;20521;-84
2021/09/07 05:34:05;;;;;;;13.63;11.47;;;15.20;99.90;;;;;;5110438;28;20463;-84
2021/09/07 05:36:32;;;;;;;16.43;11.93;;;15.20;99.90;;;;;;5108476;28;20532;-85
2021/09/07 05:38:59;;;;;;;15.60;11.90;;;15.20;99.90;;;;;;5102556;28;20444;-85
2021/09/07 05:41:25;;;;;;;14.47;11.97;;;15.30;99.90;;;;;;5101509;28;20477;-85
2021/09/07 05:43:54;;;;;;;16.10;11.13;;;15.30;99.90;;;;;;5100158;28;20428;-85
2021/09/07 05:46:20;;;;;;;16.67;11.20;;;15.30;99.90;;;;;;5101000;28;20494;-85
2021/09/07 05:48:47;;;;;;;16.43;11.87;;;15.40;99.90;;;;;;5100586;28;20532;-84
2021/09/07 05:51:14;;;;;;;13.60;11.20;;;15.40;99.90;;;;;;5101049;28;20443;-84
2021/09/07 05:53:41;;;;;;;18.47;11.93;;;15.40;99.90;;;;;;5103595;28;20904;-85
2021/09/07 05:56:11;;;;;;;14.80;11.83;;;15.50;99.90;;;;;;5101460;28;20467;-84
2021/09/07 05:58:38;;;;;;;17.50;12.20;;;15.60;99.90;;;;;;5105238;28;21003;-84
2021/09/07 06:01:06;;;;;;;19.23;12.43;;;15.60;99.90;;;;;;5101335;28;20533;-85
2021/09/07 06:03:33;;;;;;;16.73;12.33;;;15.60;99.90;;;;;;5101046;28;20448;-85
2021/09/07 06:06:00;;;;;;;15.17;11.40;;;15.70;99.90;;;;;;5099815;28;20909;-84
2021/09/07 06:08:28;;;;;;;14.10;11.03;;;15.90;99.90;;;;;;5100203;28;20494;-85
2021/09/07 06:10:55;;;;;;;13.67;11.37;;;16.00;99.90;;;;;;5100577;28;20438;-84
2021/09/07 06:13:22;;;;;;;16.60;12.27;;;16.00;99.90;;;;;;5098214;28;20459;-85
2021/09/07 06:15:49;;;;;;;15.37;11.80;;;16.10;99.90;;;;;;5098951;28;20447;-84
2021/09/07 06:18:17;;;;;;;13.83;10.40;;;16.20;99.90;;;;;;5098988;28;20432;-85
2021/09/07 06:20:44;;;;;;;14.53;11.87;;;16.20;99.90;;;;;;5098764;28;20487;-85
2021/09/07 06:23:11;;;;;;;17.63;10.80;;;16.30;99.90;;;;;;5099618;28;20915;-84
2021/09/07 06:25:38;;;;;;;16.13;11.97;;;16.40;99.90;;;;;;5104873;28;20870;-84
2021/09/07 06:28:05;;;;;;;16.87;11.83;;;16.40;99.90;;;;;;5116957;28;20515;-87
2021/09/07 06:30:32;;;;;;;17.67;11.63;;;16.30;99.90;;;;;;5102049;28;20495;-85
2021/09/07 06:32:59;;;;;;;16.40;11.20;;;16.30;99.90;;;;;;5101018;28;20863;-86
2021/09/07 06:35:27;;;;;;;15.33;11.23;;;16.30;99.90;;;;;;5103422;28;20437;-87
2021/09/07 06:37:54;;;;;;;16.27;12.10;;;16.30;99.90;;;;;;5100251;28;20519;-89
2021/09/07 06:40:22;;;;;;;17.83;12.50;;;16.30;99.90;;;;;;5097706;28;20456;-80
2021/09/07 06:42:49;;;;;;;16.53;11.23;;;16.40;99.90;;;;;;5098626;28;20429;-84
2021/09/07 06:45:16;;;;;;;15.50;11.93;;;16.50;99.90;;;;;;5101507;28;20480;-82
2021/09/07 06:47:43;;;;;;;19.10;12.77;;;16.70;99.90;;;;;;5100028;28;20931;-82
2021/09/07 06:50:11;;;;;;;16.20;12.30;;;16.80;99.90;;;;;;5099174;28;20438;-83
2021/09/07 06:52:39;;;;;;;20.60;13.53;;;16.80;99.90;;;;;;5099166;28;20515;-82
2021/09/07 06:55:07;;;;;;;19.53;13.77;;;16.80;99.90;;;;;;5106221;28;20464;-83
2021/09/07 06:57:34;;;;;;;19.87;12.93;;;16.90;99.90;;;;;;5103484;28;20516;-83
2021/09/07 07:00:03;;;;;;;18.83;12.80;;;17.10;99.90;;;;;;5102867;28;20478;-82
2021/09/07 07:02:31;;;;;;;17.87;13.80;;;17.30;99.90;;;;;;5098389;28;20441;-81
2021/09/07 07:04:57;;;;;;;18.17;13.83;;;17.30;99.90;;;;;;5098303;28;20450;-82
2021/09/07 07:07:24;;;;;;;16.07;12.30;;;17.50;99.90;;;;;;5097714;28;21004;-81
2021/09/07 07:09:52;;;;;;;20.10;12.40;;;17.70;99.90;;;;;;5097129;28;20538;-82
2021/09/07 07:12:19;;;;;;;15.73;12.73;;;17.90;99.90;;;;;;5097733;28;20536;-82
2021/09/07 07:14:46;;;;;;;15.83;12.53;;;18.00;99.90;;;;;;5098602;28;20608;-83
2021/09/07 07:17:13;;;;;;;15.70;13.73;;;18.10;99.90;;;;;;5097546;28;20465;-82
2021/09/07 07:19:40;;;;;;;16.43;12.80;;;18.30;99.90;;;;;;5098600;28;20456;-87
2021/09/07 07:22:06;;;;;;;22.57;14.47;;;18.40;99.90;;;;;;5098893;28;20446;-87
2021/09/07 07:24:33;;;;;;;19.93;14.70;;;18.50;99.90;;;;;;5098111;28;20478;-86
2021/09/07 07:27:02;;;;;;;19.10;13.57;;;18.50;99.90;;;;;;5098677;28;20543;-86
2021/09/07 07:29:29;;;;;;;15.63;12.90;;;18.80;99.90;;;;;;5098434;28;20450;-88
2021/09/07 07:31:56;;;;;;;21.57;13.90;;;19.00;99.90;;;;;;5097936;28;20461;-86
2021/09/07 07:34:23;;;;;;;16.63;14.03;;;19.00;99.90;;;;;;5096965;28;20470;-81
2021/09/07 07:36:53;;;;;;;15.20;13.17;;;19.10;99.90;;;;;;5096228;28;20474;-81
2021/09/07 07:39:20;;;;;;;16.77;12.70;;;19.10;99.90;;;;;;5098000;28;20434;-86
2021/09/07 07:41:47;;;;;;;16.80;13.37;;;19.20;99.90;;;;;;5100504;28;20533;-85
2021/09/07 07:44:16;;;;;;;17.10;13.80;;;19.40;99.90;;;;;;5101332;28;20447;-86
2021/09/07 07:46:43;;;;;;;15.60;13.53;;;19.50;99.90;;;;;;5101439;28;21060;-85
2021/09/07 07:49:09;;;;;;;16.60;12.53;;;19.70;99.90;;;;;;5101842;28;20499;-84
2021/09/07 07:51:36;;;;;;;16.63;12.67;;;19.80;99.90;;;;;;5101589;28;20446;-88
2021/09/07 07:54:07;;;;;;;20.67;14.30;;;20.10;99.90;;;;;;5101629;28;21010;-86
2021/09/07 07:56:34;;;;;;;16.57;12.00;;;20.20;99.90;;;;;;5100879;28;20489;-84
2021/09/07 07:59:01;;;;;;;24.53;14.17;;;20.30;99.90;;;;;;5100738;28;20451;-86
2021/09/07 08:01:30;;;;;;;19.07;14.17;;;20.20;99.90;;;;;;5099987;28;20542;-85
2021/09/07 08:03:57;;;;;;;20.13;13.23;;;20.30;99.90;;;;;;5097732;28;20474;-86
2021/09/07 08:06:23;;;;;;;18.20;12.43;;;20.40;99.90;;;;;;5099027;28;20558;-85
2021/09/07 08:08:50;;;;;;;21.57;13.80;;;20.40;99.90;;;;;;5098758;28;20490;-84
2021/09/07 08:11:17;;;;;;;18.93;14.13;;;20.50;99.90;;;;;;5101802;28;20450;-84
2021/09/07 08:13:44;;;;;;;17.80;13.80;;;20.60;99.90;;;;;;5105697;28;20451;-83
2021/09/07 08:16:11;;;;;;;14.27;11.53;;;20.70;99.90;;;;;;5111913;28;20485;-77
2021/09/07 08:18:39;;;;;;;17.50;13.13;;;20.70;99.90;;;;;;5108082;28;20459;-79
2021/09/07 08:21:07;;;;;;;17.00;13.20;;;20.70;99.90;;;;;;5103574;28;20453;-81
2021/09/07 08:23:33;;;;;;;19.40;13.33;;;20.90;99.90;;;;;;5106090;28;20443;-78
2021/09/07 08:26:00;;;;;;;18.90;12.20;;;21.00;99.90;;;;;;5112987;28;20558;-83
2021/09/07 08:28:27;;;;;;;17.57;12.40;;;21.20;99.90;;;;;;5103089;28;21017;-83
2021/09/07 08:30:54;;;;;;;13.00;10.10;;;21.20;99.90;;;;;;5096967;28;20442;-82
2021/09/07 08:33:21;;;;;;;16.30;11.07;;;21.20;99.90;;;;;;5096988;28;20573;-83
2021/09/07 08:35:50;;;;;;;16.03;11.27;;;21.20;99.90;;;;;;5097026;28;20456;-83
2021/09/07 08:38:17;;;;;;;13.37;10.53;;;21.30;99.90;;;;;;5105478;28;20487;-82
2021/09/07 08:40:43;;;;;;;14.17;12.43;;;21.30;99.90;;;;;;5101023;28;20474;-83
2021/09/07 08:43:10;;;;;;;20.90;15.27;;;21.40;99.90;;;;;;5100452;28;20538;-83
2021/09/07 08:45:39;;;;;;;17.40;13.63;;;21.50;99.90;;;;;;5100297;28;20482;-83
2021/09/07 08:48:07;;;;;;;20.83;14.07;;;21.40;99.90;;;;;;5101125;28;20450;-83
2021/09/07 08:50:34;;;;;;;19.03;13.90;;;21.50;99.90;;;;;;5100728;28;20481;-83
2021/09/07 08:53:02;;;;;;;21.63;12.70;;;21.40;99.90;;;;;;5100309;28;20478;-83
2021/09/07 08:55:30;;;;;;;16.13;12.83;;;21.30;99.90;;;;;;5101821;28;20860;-83
2021/09/07 08:57:57;;;;;;;16.43;12.37;;;21.20;99.90;;;;;;5101701;28;20477;-83
2021/09/07 09:00:27;;;;;;;18.00;12.40;;;21.30;99.90;;;;;;5100457;28;20875;-82
2021/09/07 09:02:54;;;;;;;17.00;12.17;;;21.30;99.90;;;;;;5100408;28;20438;-82
2021/09/07 09:05:27;;;;;;;18.47;13.63;;;21.40;99.90;;;;;;5102672;28;20523;-84
2021/09/07 09:07:54;;;;;;;17.50;12.00;;;21.50;99.90;;;;;;5100761;28;20506;-82
2021/09/07 09:10:24;;;;;;;15.40;11.70;;;21.60;99.90;;;;;;5099287;28;20447;-83
2021/09/07 09:13:04;;;;;;;16.43;11.43;;;21.70;99.90;;;;;;5098492;28;20449;-83
2021/09/07 09:15:31;;;;;;;16.40;13.27;;;21.70;99.90;;;;;;5099611;28;20443;-82
2021/09/07 09:18:05;;;;;;;20.13;12.50;;;21.70;99.90;;;;;;5098367;28;20475;-83
2021/09/07 09:20:32;;;;;;;18.10;12.73;;;21.80;99.90;;;;;;5100082;28;20435;-83
2021/09/07 09:23:00;;;;;;;14.10;11.90;;;21.90;99.90;;;;;;5099780;28;20474;-83
2021/09/07 09:25:36;;;;;;;15.93;13.00;;;22.00;99.90;;;;;;5100941;28;20447;-83
2021/09/07 09:28:22;;;;;;;18.27;12.67;;;22.00;99.90;;;;;;5100739;28;20500;-84
2021/09/07 09:31:19;;;;;;;16.53;12.53;;;21.90;99.90;;;;;;5111455;28;20438;-84
2021/09/07 09:34:22;;;;;;;19.73;11.63;;;22.10;99.90;;;;;;5104046;28;20843;-83
2021/09/07 09:37:06;;;;;;;16.77;12.90;;;22.20;99.90;;;;;;5104707;28;20486;-85
2021/09/07 09:39:50;;;;;;;16.90;11.70;;;22.40;99.90;;;;;;5112182;28;20441;-82
2021/09/07 09:42:34;;;;;;;13.67;11.97;;;22.40;99.90;;;;;;5114206;28;20420;-79
2021/09/07 09:45:02;;;;;;;18.70;12.43;;;22.50;99.90;;;;;;5115254;28;20439;-78
2021/09/07 09:47:38;;;;;;;19.97;12.63;;;22.40;99.90;;;;;;5113310;28;20466;-79
2021/09/07 09:50:06;;;;;;;14.20;11.43;;;22.40;99.90;;;;;;5115129;28;20476;-79
2021/09/07 09:52:36;;;;;;;15.00;11.83;;;22.40;99.90;;;;;;5115980;28;20435;-79
2021/09/07 09:55:04;;;;;;;15.10;12.47;;;22.40;99.90;;;;;;5110720;28;20508;-81
2021/09/07 09:57:33;;;;;;;14.70;11.20;;;22.40;99.90;;;;;;5097800;28;20982;-81
2021/09/07 10:00:02;;;;;;;18.50;11.63;;;22.50;99.90;;;;;;5097791;28;20453;-81
2021/09/07 10:02:30;;;;;;;16.43;12.00;;;22.50;99.90;;;;;;5099139;28;20451;-80
2021/09/07 10:04:58;;;;;;;17.13;11.80;;;22.70;99.90;;;;;;5106808;28;20446;-78
2021/09/07 10:07:26;;;;;;;14.57;12.10;;;22.80;99.90;;;;;;5106115;28;20539;-79
2021/09/07 10:09:53;;;;;;;14.40;10.97;;;22.90;99.90;;;;;;5107599;28;20515;-79
2021/09/07 10:12:26;;;;;;;18.30;13.30;;;23.10;99.90;;;;;;5101011;28;20530;-81
2021/09/07 10:15:02;;;;;;;16.20;11.63;;;23.10;99.90;;;;;;5097449;28;20485;-80
2021/09/07 10:17:33;;;;;;;14.77;11.63;;;23.10;99.90;;;;;;5097763;28;20470;-81
2021/09/07 10:25:50;;;;;;;15.30;11.40;;;23.40;99.60;;;;;;5098249;28;20939;-81
2021/09/07 10:28:35;;;;;;;13.63;11.00;;;23.30;99.60;;;;;;5097488;28;20438;-80
2021/09/07 10:31:08;;;;;;;13.07;10.67;;;23.50;99.90;;;;;;5097206;28;20447;-80
2021/09/07 10:33:37;;;;;;;14.03;10.70;;;23.60;99.00;;;;;;5096974;28;20467;-80
2021/09/07 10:36:19;;;;;;;13.63;11.80;;;23.70;98.40;;;;;;5096926;28;20560;-80
2021/09/07 10:38:48;;;;;;;16.37;10.50;;;23.80;98.10;;;;;;5096347;28;20446;-80
2021/09/07 10:41:47;;;;;;;12.33;9.17;;;23.90;97.60;;;;;;5097041;28;20538;-79
2021/09/07 10:44:27;;;;;;;11.80;10.50;;;23.80;97.30;;;;;;5098514;28;20454;-79
2021/09/07 10:47:10;;;;;;;13.83;10.50;;;23.90;96.80;;;;;;5098351;28;20539;-80
2021/09/07 10:49:47;;;;;;;11.97;9.50;;;23.90;95.90;;;;;;5097253;28;20475;-80
2021/09/07 10:52:34;;;;;;;13.60;10.60;;;23.90;96.00;;;;;;5099193;28;20430;-83
2021/09/07 10:55:19;;;;;;;15.30;10.30;;;24.00;95.90;;;;;;5099352;28;20493;-82
2021/09/07 10:57:53;;;;;;;12.30;9.50;;;24.00;95.90;;;;;;5098683;28;20823;-82
2021/09/07 11:00:47;;;;;;;10.20;8.13;;;24.20;94.00;;;;;;5098478;28;20435;-83
2021/09/07 11:03:25;;;;;;;12.10;9.00;;;24.30;94.10;;;;;;5063010;28;21142;-83
2021/09/07 11:05:52;;;;;;;11.10;8.73;;;24.30;93.20;;;;;;5097831;28;20780;-83
2021/09/07 11:08:36;;;;;;;10.90;9.70;;;24.40;92.80;;;;;;5098111;28;20485;-83
2021/09/07 11:11:24;;;;;;;9.70;8.40;;;24.30;93.00;;;;;;5096141;28;20442;-81
2021/09/07 11:13:54;;;;;;;10.87;8.37;;;24.40;93.20;;;;;;5096848;28;20455;-83
2021/09/07 11:16:21;;;;;;;11.30;9.20;;;24.60;92.40;;;;;;5097164;28;20458;-83
2021/09/07 11:18:49;;;;;;;11.27;8.90;;;24.70;92.30;;;;;;5097179;28;20436;-83
2021/09/07 11:21:16;;;;;;;9.87;8.47;;;24.70;92.00;;;;;;5097806;28;20549;-83
2021/09/07 11:23:43;;;;;;;10.03;8.30;;;24.70;91.70;;;;;;5098947;28;20530;-86
2021/09/07 11:26:11;;;;;;;9.73;7.90;;;24.80;91.00;;;;;;5097234;28;20799;-83
2021/09/07 11:28:41;;;;;;;10.60;9.50;;;24.70;90.40;;;;;;5097152;28;20493;-81
2021/09/07 11:31:12;;;;;;;9.77;8.77;;;24.70;90.00;;;;;;5103128;28;20634;-82
2021/09/07 11:33:41;;;;;;;12.57;9.00;;;24.90;90.20;;;;;;5102362;28;20990;-82
2021/09/07 11:36:10;;;;;;;9.30;7.97;;;24.90;89.50;;;;;;5105587;28;20556;-81
2021/09/07 11:38:39;;;;;;;10.30;7.80;;;25.00;88.80;;;;;;5114724;28;20440;-80
2021/09/07 11:41:09;;;;;;;10.23;8.67;;;24.90;89.10;;;;;;5115349;28;20433;-79
2021/09/07 11:43:38;;;;;;;13.23;8.97;;;25.00;89.50;;;;;;5101177;28;20436;-82
2021/09/07 11:46:11;;;;;;;9.53;8.40;;;25.00;88.40;;;;;;5110620;28;20489;-79
2021/09/07 11:48:40;;;;;;;10.53;8.00;;;25.10;86.70;;;;;;5107812;28;20456;-80
2021/09/07 11:51:10;;;;;;;10.50;8.37;;;25.10;86.80;;;;;;5100883;28;20522;-83
2021/09/07 11:53:37;;;;;;;10.73;8.80;;;25.10;87.50;;;;;;5102895;28;20475;-81
2021/09/07 11:56:05;;;;;;;11.27;9.33;;;25.20;81.60;;;;;;5101761;28;20562;-82
2021/09/07 11:58:34;;;;;;;10.00;8.13;;;25.20;82.50;;;;;;5099061;28;20531;-82
2021/09/07 12:01:10;;;;;;;9.90;8.30;;;25.30;83.50;;;;;;5099320;28;20454;-81
2021/09/07 12:03:49;;;;;;;12.50;8.63;;;25.40;83.70;;;;;;5097496;28;20935;-83
2021/09/07 12:06:19;;;;;;;10.17;8.80;;;25.40;81.00;;;;;;5098371;28;20471;-83
2021/09/07 12:08:48;;;;;;;10.30;9.20;;;25.50;82.60;;;;;;5097327;28;20437;-83
2021/09/07 12:11:28;;;;;;;13.77;8.30;;;25.40;79.30;;;;;;5096926;28;20478;-83
2021/09/07 12:14:03;;;;;;;9.10;7.60;;;25.40;79.70;;;;;;5100973;28;20495;-83
2021/09/07 12:16:30;;;;;;;15.23;9.80;;;25.50;78.20;;;;;;5100435;28;20555;-80
2021/09/07 12:18:57;;;;;;;10.10;8.67;;;25.50;79.60;;;;;;5100120;28;20510;-81
2021/09/07 12:21:26;;;;;;;11.47;9.13;;;25.60;80.40;;;;;;5100529;28;20448;-82
2021/09/07 12:23:55;;;;;;;8.67;7.43;;;25.70;80.90;;;;;;5101046;28;20454;-80
2021/09/07 12:26:39;;;;;;;9.53;8.23;;;25.80;78.90;;;;;;5100062;28;20898;-81
2021/09/07 12:29:13;;;;;;;9.63;8.53;;;25.90;77.20;;;;;;5099927;28;20513;-82
2021/09/07 12:31:40;;;;;;;9.20;7.93;;;25.90;76.50;;;;;;5100965;28;20886;-83
2021/09/07 12:34:07;;;;;;;8.80;7.60;;;26.00;75.10;;;;;;5100078;28;20429;-82
2021/09/07 12:36:45;;;;;;;10.33;8.57;;;26.10;76.20;;;;;;5099105;28;20484;-80
2021/09/07 12:39:13;;;;;;;9.07;8.13;;;25.90;77.10;;;;;;5099161;28;20795;-81
2021/09/07 12:41:40;;;;;;;9.70;8.60;;;25.70;77.20;;;;;;5099858;28;20476;-80
2021/09/07 12:44:07;;;;;;;9.57;8.57;;;25.70;77.90;;;;;;5100785;28;20437;-80
2021/09/07 12:46:35;;;;;;;11.13;9.60;;;25.80;77.90;;;;;;5098935;28;20473;-80
2021/09/07 12:49:02;;;;;;;9.90;8.33;;;25.80;77.50;;;;;;5099312;28;20504;-81